CW4549 Weather Reports


Display with metric or nautical units.
time (UTC)temp
F
wind
direction
speed
MPH
gust
MPH
rain 1hr
in
rain 24hr
in
rain mn
in
humidity
%
barometer
mb
20201022233020 72 0.0 0.0 0.00 0.00 0.00 75 1017.9
20201022231523 73 0.0 0.0 0.00 0.00 0.00 72 1017.7
20201022230038 75 0.0 0.0 0.00 0.00 0.00 68 1017.8
20201022224520 76 0.0 1.0 0.00 0.00 0.00 64 1017.8
20201022223022 78 0.0 2.0 0.00 0.00 0.00 60 1017.8
20201022221521 78 0.0 4.0 0.00 0.00 0.00 58 1017.8
20201022220024 79 180 1.0 8.0 0.00 0.00 0.00 57 1017.8
20201022214522 80 158 1.0 7.0 0.00 0.00 0.00 57 1017.9
20201022213021 81 158 1.0 5.0 0.00 0.00 0.00 55 1017.9
20201022211521 81 158 1.0 6.0 0.00 0.00 0.00 55 1017.8
20201022210022 80 158 2.0 8.0 0.00 0.00 0.00 58 1017.8
20201022204520 80 158 2.0 8.0 0.00 0.00 0.00 59 1017.8
20201022203024 79 158 2.0 12.0 0.00 0.00 0.00 60 1017.9
20201022201526 79 135 1.0 8.0 0.00 0.00 0.00 61 1017.8
20201022200033 80 135 2.0 9.0 0.00 0.00 0.00 58 1017.7
20201022194527 79 180 1.0 10.0 0.00 0.00 0.00 58 1017.8
20201022193029 79 0.0 2.0 0.00 0.00 0.00 65 1018.1
20201022191519 79 180 2.0 8.0 0.00 0.00 0.00 64 1018.2
20201022190027 80 203 1.0 8.0 0.00 0.00 0.00 64 1018.2
20201022184524 80 203 1.0 7.0 0.00 0.00 0.00 64 1018.5
20201022183020 80 180 2.0 8.0 0.00 0.00 0.00 64 1018.5
20201022182313 79 158 3.0 14.0 0.00 0.00 0.00 64 1018.7
20201022180025 79 158 1.0 12.0 0.00 0.00 0.00 67 1019.0
20201022174530 80 158 1.0 7.0 0.00 0.01 0.00 65 1019.2
20201022173025 79 158 2.0 9.0 0.00 0.01 0.00 69 1019.5
20201022171523 78 180 2.0 11.0 0.00 0.01 0.00 69 1019.7
20201022170023 77 158 1.0 8.0 0.00 0.01 0.00 72 1020.1
20201022164522 76 180 1.0 5.0 0.00 0.01 0.00 73 1020.3
20201022163021 75 180 1.0 7.0 0.00 0.01 0.00 76 1020.5
20201022161524 74 180 1.0 6.0 0.00 0.01 0.00 79 1020.6
20201022160028 72 158 1.0 7.0 0.00 0.01 0.00 84 1020.9
20201022154527 70 158 2.0 11.0 0.00 0.01 0.00 86 1021.1
20201022153033 68 158 2.0 10.0 0.00 0.01 0.00 92 1021.1
20201022151533 67 0.0 4.0 0.00 0.01 0.00 100 1021.2
20201022150024 66 0.0 2.0 0.00 0.01 0.00 100 1021.2
20201022144524 65 0.0 3.0 0.00 0.01 0.00 100 1021.2
20201022143026 65 0.0 3.0 0.00 0.01 0.00 100 1021.2
20201022141600 64 180 1.0 5.0 0.00 0.01 0.00 100 1021.2
20201022140106 63 203 1.0 6.0 0.00 0.01 0.00 100 1021.3
20201022134528 62 0.0 4.0 0.00 0.01 0.00 100 1021.3
20201022133055 62 0.0 3.0 0.00 0.01 0.00 100 1021.0
20201022131521 61 0.0 2.0 0.00 0.01 0.00 100 1021.0
20201022130032 61 0.0 5.0 0.00 0.01 0.00 100 1020.9
20201022124523 61 0.0 2.0 0.00 0.01 0.00 100 1020.7
20201022123048 60 0.0 1.0 0.00 0.01 0.00 100 1020.7
20201022121526 58 0.0 2.0 0.00 0.01 0.00 100 1020.6
20201022120022 57 0.0 1.0 0.00 0.01 0.00 100 1020.4
20201022114522 56 0.0 0.0 0.00 0.01 0.00 100 1020.3
20201022113025 55 0.0 0.0 0.00 0.01 0.00 100 1020.4
20201022111533 55 0.0 0.0 0.00 0.01 0.00 100 1020.4
20201022110024 56 0.0 0.0 0.00 0.01 0.00 100 1020.3
20201022104527 55 0.0 0.0 0.00 0.01 0.00 100 1020.2
20201022103027 55 0.0 0.0 0.00 0.01 0.00 100 1020.2
20201022101522 55 0.0 0.0 0.00 0.01 0.00 100 1020.0
20201022100024 56 0.0 0.0 0.00 0.01 0.00 100 1019.8
20201022094519 56 0.0 0.0 0.00 0.01 0.00 100 1019.7
20201022093021 56 0.0 0.0 0.00 0.01 0.00 100 1019.6
20201022091526 56 0.0 0.0 0.00 0.01 0.00 100 1019.4
20201022090024 56 0.0 0.0 0.00 0.01 0.00 100 1019.3
20201022084523 57 0.0 0.0 0.00 0.01 0.00 100 1019.3
20201022083037 57 0.0 0.0 0.00 0.01 0.00 100 1019.5
20201022081531 58 0.0 0.0 0.00 0.01 0.00 100 1019.7
20201022080020 58 0.0 0.0 0.00 0.01 0.00 100 1019.7
20201022074523 58 0.0 0.0 0.00 0.01 0.00 100 1019.6
20201022073021 59 0.0 0.0 0.00 0.01 0.00 100 1019.7
20201022071525 59 0.0 0.0 0.00 0.01 0.00 100 1019.6
20201022070107 59 0.0 0.0 0.00 0.01 0.00 100 1019.7
20201022064521 60 0.0 0.0 0.00 0.01 0.00 100 1019.6
20201022063021 60 0.0 0.0 0.00 0.01 0.00 100 1019.7
20201022061523 60 0.0 0.0 0.00 0.01 0.00 100 1019.8
20201022060034 60 0.0 0.0 0.00 0.01 0.00 100 1019.8
20201022054531 60 0.0 0.0 0.00 0.01 0.00 100 1019.9
20201022053039 61 0.0 0.0 0.00 0.01 0.00 100 1019.9
20201022051521 60 0.0 0.0 0.00 0.01 0.00 100 1020.0
20201022050024 60 0.0 0.0 0.00 0.01 0.00 100 1020.2
20201022044528 60 0.0 0.0 0.00 0.01 0.00 100 1020.3
20201022043053 60 0.0 0.0 0.00 0.01 0.00 100 1020.3
20201022041527 60 0.0 0.0 0.00 0.01 0.00 100 1020.5
20201022040043 60 0.0 0.0 0.00 0.01 0.00 100 1020.8
20201022034520 60 0.0 0.0 0.00 0.01 0.01 100 1020.9
20201022033030 61 0.0 0.0 0.00 0.01 0.01 100 1020.8
20201022031527 61 0.0 0.0 0.00 0.01 0.01 100 1021.0
20201022030036 61 0.0 0.0 0.00 0.01 0.01 100 1021.3
20201022024521 61 0.0 0.0 0.00 0.01 0.01 100 1021.3
20201022023028 61 0.0 0.0 0.00 0.01 0.01 100 1021.3
20201022021520 62 0.0 0.0 0.00 0.01 0.01 100 1021.1
20201022020026 62 0.0 0.0 0.00 0.01 0.01 100 1021.3
20201022014523 62 0.0 0.0 0.00 0.01 0.01 100 1021.2
20201022013030 62 0.0 0.0 0.00 0.01 0.01 100 1021.3
20201022011520 63 0.0 0.0 0.00 0.01 0.01 100 1021.3
20201022010021 63 0.0 0.0 0.00 0.01 0.01 100 1021.4
20201022004527 64 0.0 0.0 0.00 0.01 0.01 100 1021.3
20201022003027 64 0.0 0.0 0.00 0.01 0.01 100 1021.3
20201022001524 64 0.0 0.0 0.00 0.01 0.01 100 1021.3
20201022000035 64 0.0 0.0 0.00 0.01 0.01 100 1021.2
20201021234530 65 0.0 2.0 0.00 0.01 0.01 100 1021.1